sensor_id;sensor_type;location;lat;lon;timestamp;pressure;altitude;pressure_sealevel;temperature;humidity
32761;BME280;19126;47.472;7.850;2023-03-08T00:01:33;95467.13;;;0.69;95.36
32761;BME280;19126;47.472;7.850;2023-03-08T00:04:03;95476.50;;;0.70;95.75
32761;BME280;19126;47.472;7.850;2023-03-08T00:06:30;95475.66;;;0.70;96.05
32761;BME280;19126;47.472;7.850;2023-03-08T00:09:00;95481.00;;;0.68;96.10
32761;BME280;19126;47.472;7.850;2023-03-08T00:11:29;95484.94;;;0.63;96.23
32761;BME280;19126;47.472;7.850;2023-03-08T00:13:56;95484.44;;;0.59;96.97
32761;BME280;19126;47.472;7.850;2023-03-08T00:16:29;95492.47;;;0.56;97.61
32761;BME280;19126;47.472;7.850;2023-03-08T00:18:59;95474.25;;;0.48;97.25
32761;BME280;19126;47.472;7.850;2023-03-08T00:21:28;95462.69;;;0.42;97.79
32761;BME280;19126;47.472;7.850;2023-03-08T00:23:55;95457.28;;;0.35;98.15
32761;BME280;19126;47.472;7.850;2023-03-08T00:26:24;95455.09;;;0.31;98.87
32761;BME280;19126;47.472;7.850;2023-03-08T00:28:53;95451.59;;;0.22;99.23
32761;BME280;19126;47.472;7.850;2023-03-08T00:31:21;95444.69;;;0.12;100.00
32761;BME280;19126;47.472;7.850;2023-03-08T00:33:51;95445.09;;;0.08;100.00
32761;BME280;19126;47.472;7.850;2023-03-08T00:36:26;95434.63;;;-0.01;100.00
32761;BME280;19126;47.472;7.850;2023-03-08T00:38:54;95431.22;;;-0.01;100.00
32761;BME280;19126;47.472;7.850;2023-03-08T00:41:26;95438.44;;;-0.05;100.00
32761;BME280;19126;47.472;7.850;2023-03-08T00:43:53;95429.88;;;-0.05;100.00
32761;BME280;19126;47.472;7.850;2023-03-08T00:46:23;95423.06;;;-0.06;100.00
32761;BME280;19126;47.472;7.850;2023-03-08T00:48:50;95417.25;;;-0.08;100.00
32761;BME280;19126;47.472;7.850;2023-03-08T00:51:19;95419.00;;;-0.19;100.00
32761;BME280;19126;47.472;7.850;2023-03-08T00:53:48;95411.16;;;-0.17;100.00
32761;BME280;19126;47.472;7.850;2023-03-08T00:56:19;95407.75;;;-0.18;100.00
32761;BME280;19126;47.472;7.850;2023-03-08T00:58:47;95399.47;;;-0.21;100.00
32761;BME280;19126;47.472;7.850;2023-03-08T01:01:16;95402.84;;;-0.21;100.00
32761;BME280;19126;47.472;7.850;2023-03-08T01:03:46;95397.00;;;-0.23;100.00
32761;BME280;19126;47.472;7.850;2023-03-08T01:06:14;95391.31;;;-0.26;100.00
32761;BME280;19126;47.472;7.850;2023-03-08T01:08:41;95380.31;;;-0.28;100.00
32761;BME280;19126;47.472;7.850;2023-03-08T01:11:17;95370.00;;;-0.28;100.00
32761;BME280;19126;47.472;7.850;2023-03-08T01:13:45;95355.91;;;-0.44;100.00
32761;BME280;19126;47.472;7.850;2023-03-08T01:16:19;95355.88;;;-0.54;100.00
32761;BME280;19126;47.472;7.850;2023-03-08T01:18:46;95349.53;;;-0.60;100.00
32761;BME280;19126;47.472;7.850;2023-03-08T01:21:14;95349.91;;;-0.64;100.00
32761;BME280;19126;47.472;7.850;2023-03-08T01:23:41;95342.34;;;-0.66;100.00
32761;BME280;19126;47.472;7.850;2023-03-08T01:26:14;95343.41;;;-0.58;100.00
32761;BME280;19126;47.472;7.850;2023-03-08T01:28:46;95338.25;;;-0.58;100.00
32761;BME280;19126;47.472;7.850;2023-03-08T01:31:15;95327.94;;;-0.58;100.00
32761;BME280;19126;47.472;7.850;2023-03-08T01:33:44;95326.84;;;-0.56;100.00
32761;BME280;19126;47.472;7.850;2023-03-08T01:36:14;95324.69;;;-0.70;100.00
32761;BME280;19126;47.472;7.850;2023-03-08T01:38:41;95340.97;;;-0.70;100.00
32761;BME280;19126;47.472;7.850;2023-03-08T01:41:15;95347.09;;;-0.71;100.00
32761;BME280;19126;47.472;7.850;2023-03-08T01:43:44;95346.41;;;-0.73;100.00
32761;BME280;19126;47.472;7.850;2023-03-08T01:46:21;95340.69;;;-0.77;100.00
32761;BME280;19126;47.472;7.850;2023-03-08T01:48:53;95337.44;;;-0.79;100.00
32761;BME280;19126;47.472;7.850;2023-03-08T01:51:25;95320.47;;;-0.71;100.00
32761;BME280;19126;47.472;7.850;2023-03-08T01:53:56;95309.50;;;-0.64;100.00
32761;BME280;19126;47.472;7.850;2023-03-08T01:56:26;95317.91;;;-0.62;100.00
32761;BME280;19126;47.472;7.850;2023-03-08T01:58:56;95316.25;;;-0.72;100.00
32761;BME280;19126;47.472;7.850;2023-03-08T02:01:27;95310.44;;;-0.84;100.00
32761;BME280;19126;47.472;7.850;2023-03-08T02:03:58;95302.56;;;-0.83;100.00
32761;BME280;19126;47.472;7.850;2023-03-08T02:06:25;95302.00;;;-0.77;100.00
32761;BME280;19126;47.472;7.850;2023-03-08T02:08:54;95302.84;;;-0.76;100.00
32761;BME280;19126;47.472;7.850;2023-03-08T02:11:21;95289.00;;;-0.75;100.00
32761;BME280;19126;47.472;7.850;2023-03-08T02:13:50;95284.13;;;-0.78;100.00
32761;BME280;19126;47.472;7.850;2023-03-08T02:16:18;95279.63;;;-0.76;100.00
32761;BME280;19126;47.472;7.850;2023-03-08T02:18:51;95277.84;;;-0.76;100.00
32761;BME280;19126;47.472;7.850;2023-03-08T02:21:20;95271.22;;;-0.78;100.00
32761;BME280;19126;47.472;7.850;2023-03-08T02:23:49;95260.22;;;-0.90;100.00
32761;BME280;19126;47.472;7.850;2023-03-08T02:26:16;95256.19;;;-0.93;100.00
32761;BME280;19126;47.472;7.850;2023-03-08T02:28:43;95250.06;;;-0.92;100.00
32761;BME280;19126;47.472;7.850;2023-03-08T02:31:14;95247.75;;;-0.85;100.00
32761;BME280;19126;47.472;7.850;2023-03-08T02:33:41;95233.09;;;-0.84;100.00
32761;BME280;19126;47.472;7.850;2023-03-08T02:36:08;95237.59;;;-0.86;100.00
32761;BME280;19126;47.472;7.850;2023-03-08T02:38:36;95222.91;;;-0.86;100.00
32761;BME280;19126;47.472;7.850;2023-03-08T02:41:04;95224.81;;;-0.88;100.00
32761;BME280;19126;47.472;7.850;2023-03-08T02:43:32;95217.22;;;-0.90;100.00
32761;BME280;19126;47.472;7.850;2023-03-08T02:45:59;95210.03;;;-0.86;100.00
32761;BME280;19126;47.472;7.850;2023-03-08T02:48:26;95199.44;;;-0.83;100.00
32761;BME280;19126;47.472;7.850;2023-03-08T02:50:57;95194.28;;;-0.83;100.00
32761;BME280;19126;47.472;7.850;2023-03-08T02:53:24;95199.31;;;-0.81;100.00
32761;BME280;19126;47.472;7.850;2023-03-08T02:55:51;95198.88;;;-0.77;100.00
32761;BME280;19126;47.472;7.850;2023-03-08T02:58:19;95199.56;;;-0.75;100.00
32761;BME280;19126;47.472;7.850;2023-03-08T03:00:46;95194.28;;;-0.73;100.00
32761;BME280;19126;47.472;7.850;2023-03-08T03:03:13;95206.72;;;-0.68;100.00
32761;BME280;19126;47.472;7.850;2023-03-08T03:05:41;95208.22;;;-0.66;100.00
32761;BME280;19126;47.472;7.850;2023-03-08T03:08:09;95200.59;;;-0.57;100.00
32761;BME280;19126;47.472;7.850;2023-03-08T03:10:36;95194.34;;;-0.55;100.00
32761;BME280;19126;47.472;7.850;2023-03-08T03:13:03;95190.13;;;-0.46;100.00
32761;BME280;19126;47.472;7.850;2023-03-08T03:15:32;95185.63;;;-0.44;100.00
32761;BME280;19126;47.472;7.850;2023-03-08T03:17:59;95186.03;;;-0.39;100.00
32761;BME280;19126;47.472;7.850;2023-03-08T03:20:26;95178.28;;;-0.39;100.00
32761;BME280;19126;47.472;7.850;2023-03-08T03:22:53;95175.53;;;-0.37;100.00
32761;BME280;19126;47.472;7.850;2023-03-08T03:25:20;95168.47;;;-0.35;100.00
32761;BME280;19126;47.472;7.850;2023-03-08T03:27:48;95168.19;;;-0.32;100.00
32761;BME280;19126;47.472;7.850;2023-03-08T03:30:15;95161.41;;;-0.33;100.00
32761;BME280;19126;47.472;7.850;2023-03-08T03:32:43;95146.31;;;-0.28;100.00
32761;BME280;19126;47.472;7.850;2023-03-08T03:35:11;95142.63;;;-0.25;100.00
32761;BME280;19126;47.472;7.850;2023-03-08T03:37:41;95135.41;;;-0.22;100.00
32761;BME280;19126;47.472;7.850;2023-03-08T03:40:10;95126.88;;;-0.22;100.00
32761;BME280;19126;47.472;7.850;2023-03-08T03:42:38;95125.63;;;-0.18;100.00
32761;BME280;19126;47.472;7.850;2023-03-08T03:45:06;95116.25;;;-0.19;100.00
32761;BME280;19126;47.472;7.850;2023-03-08T03:47:37;95103.84;;;-0.16;100.00
32761;BME280;19126;47.472;7.850;2023-03-08T03:50:06;95113.22;;;-0.15;100.00
32761;BME280;19126;47.472;7.850;2023-03-08T03:52:33;95110.50;;;-0.13;100.00
32761;BME280;19126;47.472;7.850;2023-03-08T03:55:00;95108.22;;;-0.16;100.00
32761;BME280;19126;47.472;7.850;2023-03-08T03:57:27;95097.75;;;-0.15;100.00
32761;BME280;19126;47.472;7.850;2023-03-08T04:00:01;95105.34;;;-0.13;100.00
32761;BME280;19126;47.472;7.850;2023-03-08T04:02:28;95101.53;;;-0.09;100.00
32761;BME280;19126;47.472;7.850;2023-03-08T04:04:56;95095.69;;;-0.11;100.00
32761;BME280;19126;47.472;7.850;2023-03-08T04:07:25;95101.38;;;-0.07;100.00
32761;BME280;19126;47.472;7.850;2023-03-08T04:09:56;95091.03;;;-0.07;100.00
32761;BME280;19126;47.472;7.850;2023-03-08T04:12:24;95078.00;;;-0.06;100.00
32761;BME280;19126;47.472;7.850;2023-03-08T04:14:52;95083.97;;;-0.05;100.00
32761;BME280;19126;47.472;7.850;2023-03-08T04:17:19;95083.00;;;-0.04;100.00
32761;BME280;19126;47.472;7.850;2023-03-08T04:19:47;95085.44;;;-0.03;100.00
32761;BME280;19126;47.472;7.850;2023-03-08T04:22:18;95077.03;;;-0.05;100.00
32761;BME280;19126;47.472;7.850;2023-03-08T04:24:46;95073.63;;;-0.05;100.00
32761;BME280;19126;47.472;7.850;2023-03-08T04:27:13;95070.09;;;-0.04;100.00
32761;BME280;19126;47.472;7.850;2023-03-08T04:29:40;95066.56;;;-0.03;100.00
32761;BME280;19126;47.472;7.850;2023-03-08T04:32:08;95065.75;;;-0.04;100.00
32761;BME280;19126;47.472;7.850;2023-03-08T04:34:35;95068.34;;;-0.04;100.00
32761;BME280;19126;47.472;7.850;2023-03-08T04:37:02;95069.13;;;-0.03;100.00
32761;BME280;19126;47.472;7.850;2023-03-08T04:39:29;95062.06;;;-0.01;100.00
32761;BME280;19126;47.472;7.850;2023-03-08T04:41:58;95055.13;;;-0.01;100.00
32761;BME280;19126;47.472;7.850;2023-03-08T04:44:25;95060.00;;;0.03;100.00
32761;BME280;19126;47.472;7.850;2023-03-08T04:46:52;95052.44;;;0.01;100.00
32761;BME280;19126;47.472;7.850;2023-03-08T04:49:20;95047.94;;;0.03;100.00
32761;BME280;19126;47.472;7.850;2023-03-08T04:51:47;95038.41;;;0.04;100.00
32761;BME280;19126;47.472;7.850;2023-03-08T04:54:14;95022.78;;;0.05;100.00
32761;BME280;19126;47.472;7.850;2023-03-08T04:56:41;95008.06;;;0.06;100.00
32761;BME280;19126;47.472;7.850;2023-03-08T04:59:10;95026.00;;;0.07;100.00
32761;BME280;19126;47.472;7.850;2023-03-08T05:01:37;95024.38;;;0.06;100.00
32761;BME280;19126;47.472;7.850;2023-03-08T05:04:04;95018.41;;;0.06;100.00
32761;BME280;19126;47.472;7.850;2023-03-08T05:06:32;95011.97;;;0.10;100.00
32761;BME280;19126;47.472;7.850;2023-03-08T05:08:59;95018.63;;;0.12;100.00
32761;BME280;19126;47.472;7.850;2023-03-08T05:11:27;95018.94;;;0.09;100.00
32761;BME280;19126;47.472;7.850;2023-03-08T05:13:56;95034.25;;;0.11;100.00
32761;BME280;19126;47.472;7.850;2023-03-08T05:16:25;95020.38;;;0.12;100.00
32761;BME280;19126;47.472;7.850;2023-03-08T05:18:52;95034.91;;;0.13;100.00
32761;BME280;19126;47.472;7.850;2023-03-08T05:21:20;95022.25;;;0.20;100.00
32761;BME280;19126;47.472;7.850;2023-03-08T05:23:48;95023.69;;;0.22;100.00
32761;BME280;19126;47.472;7.850;2023-03-08T05:26:18;95012.56;;;0.22;100.00
32761;BME280;19126;47.472;7.850;2023-03-08T05:28:46;95017.44;;;0.25;100.00
32761;BME280;19126;47.472;7.850;2023-03-08T05:31:15;95019.19;;;0.24;100.00
32761;BME280;19126;47.472;7.850;2023-03-08T05:33:45;95005.31;;;0.25;100.00
32761;BME280;19126;47.472;7.850;2023-03-08T05:36:12;94995.00;;;0.25;100.00
32761;BME280;19126;47.472;7.850;2023-03-08T05:38:42;95006.81;;;0.28;100.00
32761;BME280;19126;47.472;7.850;2023-03-08T05:41:11;94986.16;;;0.28;100.00
32761;BME280;19126;47.472;7.850;2023-03-08T05:43:39;94978.91;;;0.32;100.00
32761;BME280;19126;47.472;7.850;2023-03-08T05:46:10;94965.31;;;0.29;100.00
32761;BME280;19126;47.472;7.850;2023-03-08T05:48:41;94974.56;;;0.32;100.00
32761;BME280;19126;47.472;7.850;2023-03-08T05:51:11;94981.34;;;0.33;100.00
32761;BME280;19126;47.472;7.850;2023-03-08T05:53:39;94973.41;;;0.35;100.00
32761;BME280;19126;47.472;7.850;2023-03-08T05:56:07;94962.97;;;0.36;100.00
32761;BME280;19126;47.472;7.850;2023-03-08T05:58:35;94973.78;;;0.40;100.00
32761;BME280;19126;47.472;7.850;2023-03-08T06:01:08;94971.72;;;0.43;100.00
32761;BME280;19126;47.472;7.850;2023-03-08T06:03:36;94969.94;;;0.44;100.00
32761;BME280;19126;47.472;7.850;2023-03-08T06:06:03;94960.25;;;0.46;100.00
32761;BME280;19126;47.472;7.850;2023-03-08T06:08:32;94959.28;;;0.47;100.00
32761;BME280;19126;47.472;7.850;2023-03-08T06:10:59;94959.16;;;0.49;100.00
32761;BME280;19126;47.472;7.850;2023-03-08T06:13:26;94969.97;;;0.52;100.00
32761;BME280;19126;47.472;7.850;2023-03-08T06:15:54;94972.25;;;0.55;100.00
32761;BME280;19126;47.472;7.850;2023-03-08T06:18:26;94963.41;;;0.58;100.00
32761;BME280;19126;47.472;7.850;2023-03-08T06:20:58;94969.88;;;0.62;100.00
32761;BME280;19126;47.472;7.850;2023-03-08T06:23:26;94967.66;;;0.67;100.00
32761;BME280;19126;47.472;7.850;2023-03-08T06:25:58;94966.22;;;0.73;100.00
32761;BME280;19126;47.472;7.850;2023-03-08T06:28:26;94964.97;;;0.85;100.00
32761;BME280;19126;47.472;7.850;2023-03-08T06:30:54;94958.53;;;0.90;100.00
32761;BME280;19126;47.472;7.850;2023-03-08T06:33:23;94944.00;;;0.97;100.00
32761;BME280;19126;47.472;7.850;2023-03-08T06:35:58;94950.03;;;1.06;100.00
32761;BME280;19126;47.472;7.850;2023-03-08T06:38:30;94931.00;;;1.15;100.00
32761;BME280;19126;47.472;7.850;2023-03-08T06:40:59;94931.78;;;1.15;100.00
32761;BME280;19126;47.472;7.850;2023-03-08T06:43:26;94924.88;;;1.24;100.00
32761;BME280;19126;47.472;7.850;2023-03-08T06:45:54;94938.47;;;1.35;100.00
32761;BME280;19126;47.472;7.850;2023-03-08T06:48:21;94920.69;;;1.40;100.00
32761;BME280;19126;47.472;7.850;2023-03-08T06:50:48;94913.78;;;1.49;100.00
32761;BME280;19126;47.472;7.850;2023-03-08T06:53:15;94914.44;;;1.59;100.00
32761;BME280;19126;47.472;7.850;2023-03-08T06:55:43;94916.22;;;1.75;100.00
32761;BME280;19126;47.472;7.850;2023-03-08T06:58:11;94923.19;;;1.83;100.00
32761;BME280;19126;47.472;7.850;2023-03-08T07:00:38;94908.09;;;1.95;100.00
32761;BME280;19126;47.472;7.850;2023-03-08T07:03:05;94903.56;;;2.05;100.00
32761;BME280;19126;47.472;7.850;2023-03-08T07:05:32;94905.03;;;2.16;100.00
32761;BME280;19126;47.472;7.850;2023-03-08T07:08:07;94908.72;;;2.22;100.00
32761;BME280;19126;47.472;7.850;2023-03-08T07:10:36;94898.84;;;2.33;100.00
32761;BME280;19126;47.472;7.850;2023-03-08T07:13:04;94894.91;;;2.46;100.00
32761;BME280;19126;47.472;7.850;2023-03-08T07:15:32;94891.16;;;2.48;100.00
32761;BME280;19126;47.472;7.850;2023-03-08T07:17:59;94871.56;;;2.54;100.00
32761;BME280;19126;47.472;7.850;2023-03-08T07:20:26;94884.19;;;2.57;100.00
32761;BME280;19126;47.472;7.850;2023-03-08T07:22:56;94878.19;;;2.57;100.00
32761;BME280;19126;47.472;7.850;2023-03-08T07:25:26;94880.44;;;2.68;100.00
32761;BME280;19126;47.472;7.850;2023-03-08T07:27:54;94880.78;;;2.97;100.00
32761;BME280;19126;47.472;7.850;2023-03-08T07:30:21;94872.31;;;3.03;100.00
32761;BME280;19126;47.472;7.850;2023-03-08T07:32:51;94868.56;;;3.14;100.00
32761;BME280;19126;47.472;7.850;2023-03-08T07:35:20;94877.94;;;3.38;100.00
32761;BME280;19126;47.472;7.850;2023-03-08T07:37:54;94860.44;;;3.78;100.00
32761;BME280;19126;47.472;7.850;2023-03-08T07:40:21;94866.59;;;4.01;100.00
32761;BME280;19126;47.472;7.850;2023-03-08T07:42:49;94858.72;;;4.09;100.00
32761;BME280;19126;47.472;7.850;2023-03-08T07:45:16;94857.66;;;4.18;100.00
32761;BME280;19126;47.472;7.850;2023-03-08T07:47:43;94860.00;;;4.28;100.00
32761;BME280;19126;47.472;7.850;2023-03-08T07:50:12;94846.03;;;4.29;100.00
32761;BME280;19126;47.472;7.850;2023-03-08T07:52:41;94847.91;;;4.35;100.00
32761;BME280;19126;47.472;7.850;2023-03-08T07:55:09;94828.53;;;4.53;100.00
32761;BME280;19126;47.472;7.850;2023-03-08T07:57:39;94834.84;;;4.80;100.00
32761;BME280;19126;47.472;7.850;2023-03-08T08:00:10;94828.44;;;4.98;100.00
32761;BME280;19126;47.472;7.850;2023-03-08T08:02:38;94818.25;;;5.18;100.00
32761;BME280;19126;47.472;7.850;2023-03-08T08:05:05;94828.19;;;5.51;100.00
32761;BME280;19126;47.472;7.850;2023-03-08T08:07:34;94825.78;;;5.78;100.00
32761;BME280;19126;47.472;7.850;2023-03-08T08:10:01;94825.28;;;5.90;100.00
32761;BME280;19126;47.472;7.850;2023-03-08T08:12:28;94818.50;;;5.95;100.00
32761;BME280;19126;47.472;7.850;2023-03-08T08:14:58;94813.88;;;6.19;100.00
32761;BME280;19126;47.472;7.850;2023-03-08T08:17:25;94814.53;;;6.28;100.00
32761;BME280;19126;47.472;7.850;2023-03-08T08:19:52;94802.38;;;6.42;99.45
32761;BME280;19126;47.472;7.850;2023-03-08T08:22:23;94810.66;;;6.52;99.09
32761;BME280;19126;47.472;7.850;2023-03-08T08:24:52;94809.94;;;6.72;97.03
32761;BME280;19126;47.472;7.850;2023-03-08T08:27:19;94819.97;;;6.75;96.96
32761;BME280;19126;47.472;7.850;2023-03-08T08:29:46;94816.03;;;6.86;95.95
32761;BME280;19126;47.472;7.850;2023-03-08T08:32:15;94811.41;;;6.95;96.07
32761;BME280;19126;47.472;7.850;2023-03-08T08:34:42;94806.63;;;6.98;97.33
32761;BME280;19126;47.472;7.850;2023-03-08T08:37:10;94812.88;;;7.17;94.11
32761;BME280;19126;47.472;7.850;2023-03-08T08:39:37;94805.69;;;7.33;92.29
32761;BME280;19126;47.472;7.850;2023-03-08T08:42:06;94804.06;;;7.32;92.89
32761;BME280;19126;47.472;7.850;2023-03-08T08:44:33;94812.09;;;7.37;94.44
32761;BME280;19126;47.472;7.850;2023-03-08T08:47:00;94807.09;;;7.36;92.97
32761;BME280;19126;47.472;7.850;2023-03-08T08:49:27;94820.56;;;7.32;95.77
32761;BME280;19126;47.472;7.850;2023-03-08T08:51:55;94812.72;;;7.32;95.23
32761;BME280;19126;47.472;7.850;2023-03-08T08:54:22;94813.13;;;7.29;98.17
32761;BME280;19126;47.472;7.850;2023-03-08T08:56:49;94814.94;;;7.42;96.94
32761;BME280;19126;47.472;7.850;2023-03-08T08:59:18;94816.16;;;7.40;96.66
32761;BME280;19126;47.472;7.850;2023-03-08T09:01:45;94816.94;;;7.40;97.66
32761;BME280;19126;47.472;7.850;2023-03-08T09:04:13;94830.41;;;7.44;97.45
32761;BME280;19126;47.472;7.850;2023-03-08T09:06:44;94812.94;;;7.51;97.39
32761;BME280;19126;47.472;7.850;2023-03-08T09:09:11;94824.00;;;7.67;96.43
32761;BME280;19126;47.472;7.850;2023-03-08T09:11:39;94824.59;;;7.75;95.94
32761;BME280;19126;47.472;7.850;2023-03-08T09:14:06;94824.78;;;7.94;95.45
32761;BME280;19126;47.472;7.850;2023-03-08T09:16:35;94839.69;;;8.20;93.08
32761;BME280;19126;47.472;7.850;2023-03-08T09:19:03;94836.25;;;8.27;93.05
32761;BME280;19126;47.472;7.850;2023-03-08T09:21:31;94828.78;;;8.37;92.67
32761;BME280;19126;47.472;7.850;2023-03-08T09:24:01;94834.63;;;8.46;91.41
32761;BME280;19126;47.472;7.850;2023-03-08T09:26:29;94845.50;;;8.43;92.49
32761;BME280;19126;47.472;7.850;2023-03-08T09:28:57;94837.03;;;8.54;91.65
32761;BME280;19126;47.472;7.850;2023-03-08T09:31:24;94847.69;;;8.59;92.53
32761;BME280;19126;47.472;7.850;2023-03-08T09:33:52;94855.50;;;8.66;91.58
32761;BME280;19126;47.472;7.850;2023-03-08T09:36:20;94845.50;;;8.56;92.67
32761;BME280;19126;47.472;7.850;2023-03-08T09:38:48;94859.34;;;8.63;93.42
32761;BME280;19126;47.472;7.850;2023-03-08T09:41:49;94851.47;;;8.70;92.56
32761;BME280;19126;47.472;7.850;2023-03-08T09:47:15;94855.09;;;8.76;91.93
32761;BME280;19126;47.472;7.850;2023-03-08T09:49:47;94859.50;;;8.75;92.23
32761;BME280;19126;47.472;7.850;2023-03-08T09:52:19;94858.09;;;8.79;94.08
32761;BME280;19126;47.472;7.850;2023-03-08T09:54:49;94851.84;;;8.80;94.09
32761;BME280;19126;47.472;7.850;2023-03-08T09:57:18;94858.69;;;8.82;94.40
32761;BME280;19126;47.472;7.850;2023-03-08T09:59:52;94862.91;;;8.83;94.74
32761;BME280;19126;47.472;7.850;2023-03-08T10:02:25;94876.63;;;8.78;95.83
32761;BME280;19126;47.472;7.850;2023-03-08T10:05:02;94867.59;;;8.74;97.01
32761;BME280;19126;47.472;7.850;2023-03-08T10:07:46;94869.38;;;8.73;98.05
32761;BME280;19126;47.472;7.850;2023-03-08T10:10:22;94869.19;;;8.68;99.78
32761;BME280;19126;47.472;7.850;2023-03-08T10:13:02;94868.78;;;8.71;100.00
32761;BME280;19126;47.472;7.850;2023-03-08T10:15:32;94872.59;;;8.75;100.00
32761;BME280;19126;47.472;7.850;2023-03-08T10:18:08;94872.59;;;8.75;100.00
32761;BME280;19126;47.472;7.850;2023-03-08T10:20:38;94871.19;;;8.79;100.00
32761;BME280;19126;47.472;7.850;2023-03-08T10:23:12;94860.50;;;8.81;100.00
32761;BME280;19126;47.472;7.850;2023-03-08T10:25:40;94861.31;;;8.82;100.00
32761;BME280;19126;47.472;7.850;2023-03-08T10:28:11;94860.47;;;8.88;100.00
32761;BME280;19126;47.472;7.850;2023-03-08T10:30:41;94858.69;;;8.88;100.00
32761;BME280;19126;47.472;7.850;2023-03-08T10:33:12;94860.69;;;8.86;100.00
32761;BME280;19126;47.472;7.850;2023-03-08T10:35:53;94859.06;;;8.92;100.00
32761;BME280;19126;47.472;7.850;2023-03-08T10:38:22;94854.59;;;8.99;100.00
32761;BME280;19126;47.472;7.850;2023-03-08T10:41:00;94859.41;;;9.02;99.76
32761;BME280;19126;47.472;7.850;2023-03-08T10:43:28;94860.22;;;9.03;100.00
32761;BME280;19126;47.472;7.850;2023-03-08T10:45:58;94863.81;;;9.08;100.00
32761;BME280;19126;47.472;7.850;2023-03-08T10:48:25;94866.25;;;9.10;99.68
32761;BME280;19126;47.472;7.850;2023-03-08T10:51:02;94863.38;;;9.18;99.45
32761;BME280;19126;47.472;7.850;2023-03-08T10:53:30;94867.03;;;9.17;99.52
32761;BME280;19126;47.472;7.850;2023-03-08T10:55:58;94867.03;;;9.17;99.36
32761;BME280;19126;47.472;7.850;2023-03-08T10:58:28;94868.41;;;9.20;98.50
32761;BME280;19126;47.472;7.850;2023-03-08T11:01:03;94875.44;;;9.26;97.29
32761;BME280;19126;47.472;7.850;2023-03-08T11:03:31;94871.59;;;9.29;96.68
32761;BME280;19126;47.472;7.850;2023-03-08T11:06:02;94876.84;;;9.29;96.83
32761;BME280;19126;47.472;7.850;2023-03-08T11:08:31;94876.59;;;9.37;95.38
32761;BME280;19126;47.472;7.850;2023-03-08T11:11:08;94875.81;;;9.36;96.34
32761;BME280;19126;47.472;7.850;2023-03-08T11:13:37;94878.00;;;9.40;96.38
32761;BME280;19126;47.472;7.850;2023-03-08T11:16:13;94881.41;;;9.47;94.61
32761;BME280;19126;47.472;7.850;2023-03-08T11:18:55;94884.38;;;9.50;94.31
32761;BME280;19126;47.472;7.850;2023-03-08T11:21:31;94888.03;;;9.49;94.55
32761;BME280;19126;47.472;7.850;2023-03-08T11:24:19;94881.56;;;9.52;95.30
32761;BME280;19126;47.472;7.850;2023-03-08T11:26:55;94891.63;;;9.55;94.77
32761;BME280;19126;47.472;7.850;2023-03-08T11:29:32;94895.03;;;9.56;95.22
32761;BME280;19126;47.472;7.850;2023-03-08T11:32:06;94884.97;;;9.52;95.08
32761;BME280;19126;47.472;7.850;2023-03-08T11:34:52;94900.47;;;9.61;95.55
32761;BME280;19126;47.472;7.850;2023-03-08T11:37:33;94889.97;;;9.61;95.73
32761;BME280;19126;47.472;7.850;2023-03-08T11:40:13;94880.25;;;9.68;95.35
32761;BME280;19126;47.472;7.850;2023-03-08T11:42:51;94884.22;;;9.77;94.61
32761;BME280;19126;47.472;7.850;2023-03-08T11:45:22;94884.19;;;9.84;94.97
32761;BME280;19126;47.472;7.850;2023-03-08T11:50:58;94897.38;;;10.03;93.06
32761;BME280;19126;47.472;7.850;2023-03-08T11:53:36;94896.13;;;10.05;93.88
32761;BME280;19126;47.472;7.850;2023-03-08T11:56:29;94890.53;;;10.02;93.31
32761;BME280;19126;47.472;7.850;2023-03-08T11:59:02;94905.84;;;10.05;93.46
32761;BME280;19126;47.472;7.850;2023-03-08T12:01:34;94901.38;;;10.05;93.79
32761;BME280;19126;47.472;7.850;2023-03-08T12:04:05;94901.97;;;10.07;94.85
32761;BME280;19126;47.472;7.850;2023-03-08T12:06:36;94901.78;;;10.09;94.21
32761;BME280;19126;47.472;7.850;2023-03-08T12:09:10;94897.91;;;10.11;93.44
32761;BME280;19126;47.472;7.850;2023-03-08T12:11:41;94898.06;;;10.17;93.11
32761;BME280;19126;47.472;7.850;2023-03-08T12:14:15;94894.59;;;10.23;92.61
32761;BME280;19126;47.472;7.850;2023-03-08T12:16:51;94906.84;;;10.29;92.40
32761;BME280;19126;47.472;7.850;2023-03-08T12:19:29;94901.81;;;10.27;92.95
32761;BME280;19126;47.472;7.850;2023-03-08T12:22:07;94899.56;;;10.31;92.60
32761;BME280;19126;47.472;7.850;2023-03-08T12:24:43;94891.91;;;10.30;93.05
32761;BME280;19126;47.472;7.850;2023-03-08T12:27:16;94903.16;;;10.37;93.11
32761;BME280;19126;47.472;7.850;2023-03-08T12:29:48;94882.72;;;10.46;91.55
32761;BME280;19126;47.472;7.850;2023-03-08T12:32:17;94884.25;;;10.53;91.67
32761;BME280;19126;47.472;7.850;2023-03-08T12:34:45;94886.47;;;10.57;91.29
32761;BME280;19126;47.472;7.850;2023-03-08T12:37:29;94888.16;;;10.69;90.08
32761;BME280;19126;47.472;7.850;2023-03-08T12:40:02;94871.09;;;10.79;89.54
32761;BME280;19126;47.472;7.850;2023-03-08T12:42:35;94875.97;;;10.94;87.80
32761;BME280;19126;47.472;7.850;2023-03-08T12:45:25;94864.94;;;11.04;86.75
32761;BME280;19126;47.472;7.850;2023-03-08T12:47:59;94870.22;;;11.04;86.60
32761;BME280;19126;47.472;7.850;2023-03-08T12:50:27;94875.22;;;11.05;87.57
32761;BME280;19126;47.472;7.850;2023-03-08T12:52:57;94873.19;;;11.07;88.06
32761;BME280;19126;47.472;7.850;2023-03-08T12:55:28;94878.22;;;11.09;86.98
32761;BME280;19126;47.472;7.850;2023-03-08T12:57:58;94866.97;;;11.20;86.73
32761;BME280;19126;47.472;7.850;2023-03-08T13:00:28;94851.78;;;11.22;85.76
32761;BME280;19126;47.472;7.850;2023-03-08T13:03:03;94867.00;;;11.32;85.84
32761;BME280;19126;47.472;7.850;2023-03-08T13:05:32;94863.06;;;11.41;85.95
32761;BME280;19126;47.472;7.850;2023-03-08T13:08:03;94868.69;;;11.45;85.73
32761;BME280;19126;47.472;7.850;2023-03-08T13:10:35;94880.44;;;11.42;85.42
32761;BME280;19126;47.472;7.850;2023-03-08T13:13:18;94882.28;;;11.42;85.30
32761;BME280;19126;47.472;7.850;2023-03-08T13:15:47;94896.91;;;11.50;84.79
32761;BME280;19126;47.472;7.850;2023-03-08T13:18:16;94890.63;;;11.51;83.47
32761;BME280;19126;47.472;7.850;2023-03-08T13:21:13;94890.56;;;11.57;83.18